Time;durP1;ratioP1;P1;durP2;ratioP2;P2;SDS_P1;SDS_P2;PMS_P1;PMS_P2;Temp;Humidity;BMP_temperature;BMP_pressure;BME280_temperature;BME280_humidity;BME280_pressure;Samples;Min_cycle;Max_cycle;Signal;HPM_P1;HPM_P2
2023/09/06 00:00:17;;;;;;;2.43;2.23;;;;;;;18.50;75.17;93948.69;521766;28;1098;-49
2023/09/06 00:00:36;;;;;;;2.45;1.90;;;;;;;18.50;75.34;93949.44;519784;28;884;-49
2023/09/06 00:00:52;;;;;;;2.90;2.25;;;;;;;18.50;75.10;93945.91;519795;28;1656;-48
2023/09/06 00:01:08;;;;;;;2.42;2.22;;;;;;;18.49;75.44;93945.19;520935;28;836;-48
2023/09/06 00:01:23;;;;;;;2.10;2.00;;;;;;;18.50;75.26;93952.22;521652;28;876;-48
2023/09/06 00:01:39;;;;;;;2.03;1.88;;;;;;;18.49;75.42;93950.03;521282;28;1047;-50
2023/09/06 00:01:56;;;;;;;2.35;2.15;;;;;;;18.50;75.44;93951.50;521875;28;998;-49
2023/09/06 00:02:11;;;;;;;2.30;2.13;;;;;;;18.50;75.42;93948.69;523473;28;943;-49
2023/09/06 00:02:29;;;;;;;2.20;2.00;;;;;;;18.48;75.84;93940.91;523951;28;843;-49
2023/09/06 00:02:44;;;;;;;2.33;2.08;;;;;;;18.50;75.86;93952.22;524182;28;813;-49
2023/09/06 00:03:00;;;;;;;2.77;2.50;;;;;;;18.49;75.96;93950.03;523607;28;1149;-51
2023/09/06 00:03:16;;;;;;;2.70;2.50;;;;;;;18.48;75.97;93952.09;521213;28;1689;-49
2023/09/06 00:03:32;;;;;;;2.30;2.10;;;;;;;18.48;75.89;93945.75;519985;28;915;-50
2023/09/06 00:03:48;;;;;;;2.35;2.15;;;;;;;18.43;75.97;93943.97;520673;28;844;-49
2023/09/06 00:04:03;;;;;;;2.47;2.27;;;;;;;18.49;75.93;93950.78;522446;28;918;-49
2023/09/06 00:04:18;;;;;;;2.60;2.40;;;;;;;18.48;75.77;93946.50;523488;28;768;-48
2023/09/06 00:04:34;;;;;;;2.58;2.38;;;;;;;18.48;75.53;93940.91;521938;28;1071;-48
2023/09/06 00:04:49;;;;;;;2.77;2.10;;;;;;;18.49;75.44;93950.03;521956;28;773;-49
2023/09/06 00:05:05;;;;;;;2.50;2.17;;;;;;;18.19;75.32;93904.53;522553;28;1059;-48
2023/09/06 00:05:20;;;;;;;2.78;2.20;;;;;;;18.21;75.23;93903.94;523719;28;831;-49
2023/09/06 00:05:41;;;;;;;2.80;2.13;;;;;;;18.20;75.25;93913.66;522082;28;831;-49
2023/09/06 00:05:58;;;;;;;1.85;1.75;;;;;;;18.48;74.95;93945.75;522109;28;888;-48
2023/09/06 00:06:13;;;;;;;2.08;1.88;;;;;;;18.47;75.17;93947.84;523765;28;931;-50
2023/09/06 00:06:29;;;;;;;2.30;2.00;;;;;;;18.47;74.75;93945.03;521917;28;1909;-50
2023/09/06 00:06:44;;;;;;;2.22;2.00;;;;;;;18.46;74.73;93943.56;521850;28;863;-48
2023/09/06 00:07:00;;;;;;;2.23;2.03;;;;;;;18.46;74.71;93946.34;521068;28;1763;-48
2023/09/06 00:07:15;;;;;;;2.25;1.98;;;;;;;18.46;74.65;93942.81;521210;28;1135;-50
2023/09/06 00:07:30;;;;;;;2.07;1.87;;;;;;;18.45;74.66;93956.03;523029;28;1027;-48
2023/09/06 00:07:46;;;;;;;2.37;2.10;;;;;;;18.46;74.82;93942.81;522098;28;899;-49
2023/09/06 00:08:05;;;;;;;2.72;2.30;;;;;;;18.44;74.65;93943.41;521880;28;769;-51
2023/09/06 00:08:20;;;;;;;2.85;2.13;;;;;;;18.46;74.79;93940.00;524025;28;852;-48
2023/09/06 00:08:36;;;;;;;2.60;1.77;;;;;;;18.45;74.65;93939.28;524176;28;807;-47
2023/09/06 00:08:51;;;;;;;2.08;1.88;;;;;;;18.44;74.91;93945.44;524086;28;1607;-50
2023/09/06 00:09:07;;;;;;;2.33;2.13;;;;;;;18.44;74.60;93946.19;521698;28;1274;-50
2023/09/06 00:09:22;;;;;;;2.40;2.20;;;;;;;18.44;74.43;93942.63;521997;28;1015;-49
2023/09/06 00:09:37;;;;;;;2.33;2.13;;;;;;;18.44;74.66;93945.44;521325;28;1787;-49
2023/09/06 00:09:53;;;;;;;2.13;1.93;;;;;;;18.41;74.62;93950.13;520927;28;786;-49
2023/09/06 00:10:09;;;;;;;2.23;2.03;;;;;;;18.42;75.03;93950.88;522601;28;859;-49
2023/09/06 00:10:25;;;;;;;2.60;2.40;;;;;;;18.40;74.77;93947.94;522014;28;875;-49
2023/09/06 00:10:42;;;;;;;2.77;2.30;;;;;;;18.38;74.73;93939.41;521897;28;1037;-50
2023/09/06 00:11:01;;;;;;;1.77;1.67;;;;;;;18.36;74.64;93951.19;522033;28;1059;-51
2023/09/06 00:11:16;;;;;;;2.17;1.98;;;;;;;18.35;74.25;93955.28;522026;28;990;-51
2023/09/06 00:11:33;;;;;;;2.65;2.42;;;;;;;18.35;74.30;93943.38;519730;28;1200;-49
2023/09/06 00:11:48;;;;;;;2.40;2.13;;;;;;;18.33;74.42;93946.75;519788;28;912;-50
2023/09/06 00:12:04;;;;;;;2.80;2.10;;;;;;;18.34;74.28;93941.91;519748;28;813;-49
2023/09/06 00:12:20;;;;;;;2.83;2.20;;;;;;;18.33;74.49;93946.00;519014;28;1424;-49
2023/09/06 00:12:35;;;;;;;2.67;2.05;;;;;;;18.34;74.84;93944.69;519723;28;904;-49
2023/09/06 00:12:51;;;;;;;2.80;2.28;;;;;;;18.34;74.84;93947.50;519785;28;926;-49
2023/09/06 00:13:07;;;;;;;2.80;2.37;;;;;;;18.34;74.92;93950.28;519858;28;781;-52
2023/09/06 00:13:22;;;;;;;2.88;2.40;;;;;;;18.34;74.97;93951.03;520387;28;955;-50
2023/09/06 00:13:37;;;;;;;2.90;2.10;;;;;;;18.29;75.11;93945.72;521981;28;1019;-51
2023/09/06 00:13:53;;;;;;;2.78;1.80;;;;;;;18.32;75.13;93950.88;522130;28;856;-49
2023/09/06 00:14:08;;;;;;;2.17;1.97;;;;;;;18.32;75.17;93950.16;521803;28;893;-49
2023/09/06 00:14:24;;;;;;;2.43;2.23;;;;;;;18.31;75.24;93948.66;521559;28;855;-49
2023/09/06 00:14:39;;;;;;;2.38;2.05;;;;;;;18.30;74.91;93947.91;519998;28;840;-50
2023/09/06 00:14:55;;;;;;;2.10;1.90;;;;;;;18.32;75.07;93950.16;520015;28;904;-49
2023/09/06 00:15:10;;;;;;;2.25;2.05;;;;;;;18.30;75.14;93947.22;520909;28;1056;-49
2023/09/06 00:15:26;;;;;;;2.20;2.00;;;;;;;18.29;75.16;93945.72;521575;28;896;-48
2023/09/06 00:15:42;;;;;;;2.20;2.00;;;;;;;18.30;75.19;93944.41;522000;28;848;-49
2023/09/06 00:15:57;;;;;;;2.55;2.10;;;;;;;18.29;74.95;93948.50;522028;28;919;-49
2023/09/06 00:16:13;;;;;;;2.20;2.00;;;;;;;18.28;74.78;93947.78;523839;28;843;-49
2023/09/06 00:16:28;;;;;;;2.20;2.00;;;;;;;18.29;74.57;93954.09;524080;28;1027;-49
2023/09/06 00:16:46;;;;;;;2.20;2.00;;;;;;;18.27;74.34;93949.13;523121;28;852;-49
2023/09/06 00:17:02;;;;;;;2.25;2.05;;;;;;;18.26;74.38;93946.91;521026;28;1685;-49
2023/09/06 00:17:18;;;;;;;2.40;2.20;;;;;;;18.25;73.83;93951.03;522761;28;1138;-49
2023/09/06 00:17:37;;;;;;;2.47;2.20;;;;;;;18.25;73.14;93951.03;520725;28;852;-48
2023/09/06 00:17:52;;;;;;;2.20;2.00;;;;;;;18.24;72.77;93941.91;519940;28;1006;-48
2023/09/06 00:18:08;;;;;;;2.33;2.13;;;;;;;18.24;72.72;93946.75;522345;28;927;-49
2023/09/06 00:18:23;;;;;;;2.50;2.30;;;;;;;18.23;73.14;93948.06;522057;28;908;-47
2023/09/06 00:18:39;;;;;;;2.47;2.17;;;;;;;18.23;73.40;93940.44;522049;28;907;-48
2023/09/06 00:18:56;;;;;;;2.37;2.07;;;;;;;18.24;73.45;93946.75;522139;28;780;-47
2023/09/06 00:19:11;;;;;;;2.50;2.30;;;;;;;18.24;73.39;93943.94;523649;28;820;-47
2023/09/06 00:19:26;;;;;;;2.60;2.40;;;;;;;18.22;73.39;93941.75;524172;28;820;-47
2023/09/06 00:19:42;;;;;;;2.80;2.03;;;;;;;18.22;73.57;93946.59;522071;28;1696;-47
2023/09/06 00:19:58;;;;;;;3.10;2.10;;;;;;;18.22;73.68;93941.75;521110;28;808;-48
2023/09/06 00:20:23;;;;;;;2.73;2.10;;;;;;;18.22;73.68;93943.81;522803;28;776;-48
2023/09/06 00:20:38;;;;;;;2.55;2.15;;;;;;;18.23;74.02;93945.28;523551;28;1098;-49
2023/09/06 00:20:54;;;;;;;2.45;2.08;;;;;;;18.19;74.21;93946.44;522123;28;824;-47
2023/09/06 00:21:09;;;;;;;3.00;2.43;;;;;;;18.23;74.41;93950.88;522892;28;872;-48
2023/09/06 00:21:26;;;;;;;2.92;2.55;;;;;;;18.23;74.57;93946.03;522072;28;845;-48
2023/09/06 00:21:43;;;;;;;2.35;2.15;;;;;;;18.24;74.48;93953.06;521885;28;1066;-47
2023/09/06 00:21:59;;;;;;;2.38;2.17;;;;;;;18.24;74.70;93953.06;519940;28;880;-48
2023/09/06 00:22:14;;;;;;;2.47;2.28;;;;;;;18.25;74.74;93943.38;523638;28;1692;-48
2023/09/06 00:22:29;;;;;;;2.57;2.30;;;;;;;18.25;74.68;93948.22;520689;28;844;-48
2023/09/06 00:22:46;;;;;;;2.47;2.28;;;;;;;18.26;74.78;93949.72;520747;28;1207;-47
2023/09/06 00:23:04;;;;;;;2.33;2.13;;;;;;;18.24;74.76;93955.13;520292;28;872;-48
2023/09/06 00:23:20;;;;;;;2.28;2.08;;;;;;;18.25;74.87;93951.03;521680;28;930;-48
2023/09/06 00:23:35;;;;;;;2.58;2.25;;;;;;;18.25;74.99;93946.19;520047;28;884;-49
2023/09/06 00:23:51;;;;;;;2.77;2.23;;;;;;;18.24;74.76;93943.94;519974;28;789;-50
2023/09/06 00:24:09;;;;;;;2.45;2.25;;;;;;;18.11;74.66;93929.09;520775;28;930;-51
2023/09/06 00:24:24;;;;;;;2.75;2.25;;;;;;;18.24;74.54;93949.53;521618;28;844;-48
2023/09/06 00:24:40;;;;;;;2.40;2.10;;;;;;;18.24;74.69;93952.34;520004;28;804;-47
2023/09/06 00:24:57;;;;;;;3.92;2.25;;;;;;;18.24;74.67;93952.34;519986;28;942;-47
2023/09/06 00:25:13;;;;;;;4.25;2.30;;;;;;;18.23;74.83;93943.22;519992;28;856;-48
2023/09/06 00:25:31;;;;;;;3.97;2.25;;;;;;;18.24;74.82;93944.69;520014;28;820;-47
2023/09/06 00:25:46;;;;;;;4.25;2.53;;;;;;;18.23;74.58;93945.28;521288;28;828;-48
2023/09/06 00:26:02;;;;;;;2.47;2.15;;;;;;;18.24;74.65;93949.53;521629;28;864;-48
2023/09/06 00:26:17;;;;;;;2.55;1.85;;;;;;;18.23;74.73;93945.28;519927;28;860;-49
2023/09/06 00:26:33;;;;;;;2.10;1.90;;;;;;;18.18;74.81;93942.19;519895;28;1926;-48
2023/09/06 00:26:49;;;;;;;2.42;2.22;;;;;;;18.14;74.77;93936.31;519967;28;824;-48
2023/09/06 00:27:07;;;;;;;2.40;2.20;;;;;;;18.22;74.76;93949.38;520010;28;1744;-49
2023/09/06 00:27:23;;;;;;;2.47;2.20;;;;;;;18.22;74.72;93947.34;519864;28;884;-48
2023/09/06 00:27:38;;;;;;;2.90;2.47;;;;;;;18.21;74.85;93940.28;521781;28;761;-48
2023/09/06 00:27:55;;;;;;;2.63;2.37;;;;;;;18.23;74.75;93948.06;522006;28;867;-48
2023/09/06 00:28:10;;;;;;;2.40;2.20;;;;;;;18.19;74.71;93938.06;521523;28;955;-48
2023/09/06 00:28:26;;;;;;;2.73;2.50;;;;;;;18.22;74.83;93941.00;522044;28;926;-48
2023/09/06 00:28:41;;;;;;;2.90;2.27;;;;;;;18.23;75.06;93948.06;521964;28;1546;-48
2023/09/06 00:28:57;;;;;;;2.65;1.98;;;;;;;18.23;75.00;93946.03;521994;28;1514;-49
2023/09/06 00:29:13;;;;;;;2.33;2.00;;;;;;;18.22;75.00;93944.53;522032;28;1691;-47
2023/09/06 00:29:28;;;;;;;2.30;2.10;;;;;;;18.23;74.96;93943.22;522053;28;856;-47
2023/09/06 00:29:46;;;;;;;2.53;2.33;;;;;;;18.25;75.18;93940.59;520899;28;1776;-48
2023/09/06 00:30:01;;;;;;;2.63;2.42;;;;;;;18.25;75.07;93945.44;521309;28;996;-49
2023/09/06 00:30:20;;;;;;;2.87;2.57;;;;;;;18.25;75.18;93951.75;521994;28;991;-49
2023/09/06 00:30:36;;;;;;;2.75;2.55;;;;;;;18.25;75.09;93953.81;522061;28;864;-48
2023/09/06 00:30:55;;;;;;;2.40;2.20;;;;;;;18.21;75.23;93937.50;520245;28;812;-51
2023/09/06 00:31:10;;;;;;;2.13;1.92;;;;;;;18.26;75.28;93946.91;521491;28;888;-49
2023/09/06 00:31:26;;;;;;;2.10;1.90;;;;;;;18.25;75.37;93937.78;522038;28;913;-50
2023/09/06 00:31:41;;;;;;;2.78;2.22;;;;;;;18.25;75.15;93937.78;522034;28;1137;-50
2023/09/06 00:31:58;;;;;;;2.47;2.20;;;;;;;18.26;75.11;93946.91;521977;28;982;-49
2023/09/06 00:32:14;;;;;;;2.33;2.13;;;;;;;18.26;75.25;93941.31;521857;28;950;-49
2023/09/06 00:32:30;;;;;;;2.50;2.30;;;;;;;18.25;75.22;93937.78;521970;28;1074;-50
2023/09/06 00:32:46;;;;;;;2.58;2.38;;;;;;;18.26;75.14;93942.03;522072;28;863;-50
2023/09/06 00:33:05;;;;;;;2.40;2.20;;;;;;;18.25;74.96;93937.78;521688;28;875;-49
2023/09/06 00:33:21;;;;;;;2.75;2.38;;;;;;;18.25;74.83;93940.59;519700;28;1716;-48
2023/09/06 00:33:36;;;;;;;3.25;2.90;;;;;;;18.02;75.03;93912.31;521292;28;926;-49
2023/09/06 00:33:51;;;;;;;3.10;2.80;;;;;;;18.22;74.73;93932.63;520744;28;824;-50
2023/09/06 00:34:07;;;;;;;2.73;2.43;;;;;;;18.26;75.04;93935.75;520997;28;831;-48
2023/09/06 00:34:23;;;;;;;2.97;2.28;;;;;;;18.26;75.03;93936.44;520887;28;896;-50
2023/09/06 00:34:39;;;;;;;2.90;2.30;;;;;;;18.26;75.11;93935.75;519966;28;922;-49
2023/09/06 00:34:54;;;;;;;2.87;2.53;;;;;;;18.27;75.13;93940.00;521411;28;1074;-49
2023/09/06 00:35:10;;;;;;;2.90;2.50;;;;;;;18.27;74.96;93940.00;522000;28;840;-50
2023/09/06 00:35:26;;;;;;;2.63;2.20;;;;;;;18.27;75.07;93942.78;521068;28;939;-49
2023/09/06 00:35:42;;;;;;;2.78;1.90;;;;;;;18.27;74.93;93931.59;519825;28;889;-49
2023/09/06 00:35:58;;;;;;;2.60;2.00;;;;;;;18.27;74.83;93934.41;519765;28;813;-49
2023/09/06 00:36:13;;;;;;;2.40;2.20;;;;;;;18.26;74.80;93933.66;521561;28;1664;-48
2023/09/06 00:36:29;;;;;;;2.47;2.27;;;;;;;18.26;74.80;93935.75;521763;28;1240;-49
2023/09/06 00:36:44;;;;;;;3.13;2.40;;;;;;;18.27;74.68;93935.13;521897;28;804;-48
2023/09/06 00:37:01;;;;;;;2.97;2.23;;;;;;;18.27;74.56;93931.59;521922;28;781;-49
2023/09/06 00:37:16;;;;;;;2.22;2.03;;;;;;;18.03;74.52;93897.03;522904;28;2246;-48
2023/09/06 00:37:36;;;;;;;2.20;2.00;;;;;;;18.29;74.62;93934.53;520260;28;1538;-48
2023/09/06 00:37:52;;;;;;;2.40;2.20;;;;;;;18.30;74.43;93938.81;519967;28;1150;-50
2023/09/06 00:38:08;;;;;;;2.25;2.05;;;;;;;17.99;74.56;93896.72;522241;28;845;-49
2023/09/06 00:38:24;;;;;;;2.23;2.03;;;;;;;18.29;74.62;93935.28;523278;28;847;-49
2023/09/06 00:38:40;;;;;;;2.47;2.17;;;;;;;18.30;74.54;93936.75;522019;28;840;-50
2023/09/06 00:38:58;;;;;;;3.00;2.10;;;;;;;18.30;74.64;93928.34;522106;28;816;-50
2023/09/06 00:39:14;;;;;;;3.30;2.33;;;;;;;18.30;74.64;93933.94;521996;28;1104;-51
2023/09/06 00:39:31;;;;;;;3.03;2.20;;;;;;;18.31;74.54;93929.09;521052;28;789;-48
2023/09/06 00:39:46;;;;;;;2.20;2.00;;;;;;;18.32;74.73;93938.97;522103;28;900;-52
2023/09/06 00:40:11;;;;;;;2.10;2.00;;;;;;;18.30;74.61;93933.22;521120;28;1735;-52
2023/09/06 00:40:28;;;;;;;2.45;2.25;;;;;;;18.31;74.93;93927.03;520128;28;850;-49
2023/09/06 00:40:49;;;;;;;2.47;2.28;;;;;;;18.32;74.63;93931.28;522048;28;884;-50
2023/09/06 00:41:05;;;;;;;2.30;2.10;;;;;;;18.32;74.83;93922.19;521979;28;964;-48
2023/09/06 00:41:20;;;;;;;2.30;1.97;;;;;;;18.32;74.72;93925.00;521961;28;809;-48
2023/09/06 00:41:39;;;;;;;2.40;2.20;;;;;;;18.32;74.85;93928.50;522074;28;848;-48
2023/09/06 00:41:54;;;;;;;2.58;2.20;;;;;;;17.91;74.73;93877.31;521966;28;1074;-48
2023/09/06 00:42:09;;;;;;;2.77;2.27;;;;;;;18.18;75.02;93902.31;523297;28;942;-48
2023/09/06 00:42:30;;;;;;;2.60;2.40;;;;;;;18.30;75.07;93919.25;522516;28;1105;-49
2023/09/06 00:42:50;;;;;;;2.55;2.33;;;;;;;18.32;74.97;93922.91;522003;28;872;-50
2023/09/06 00:43:06;;;;;;;3.15;2.47;;;;;;;18.33;75.04;93918.06;522822;28;985;-50
2023/09/06 00:43:22;;;;;;;3.60;2.85;;;;;;;18.34;75.06;93925.13;524033;28;844;-49
2023/09/06 00:43:37;;;;;;;2.60;2.40;;;;;;;18.34;74.87;93916.75;522922;28;1795;-49
2023/09/06 00:43:52;;;;;;;2.35;2.15;;;;;;;18.32;74.66;93920.13;520855;28;1011;-48
2023/09/06 00:44:08;;;;;;;2.90;2.23;;;;;;;18.34;74.70;93922.34;521856;28;900;-50
2023/09/06 00:44:23;;;;;;;3.00;2.20;;;;;;;18.33;74.95;93920.84;522017;28;828;-49
2023/09/06 00:44:40;;;;;;;2.47;1.90;;;;;;;18.34;74.92;93922.34;521976;28;879;-48
2023/09/06 00:44:56;;;;;;;2.60;2.10;;;;;;;18.33;75.07;93912.47;521946;28;970;-48
2023/09/06 00:45:11;;;;;;;3.27;2.60;;;;;;;18.32;75.23;93911.72;523646;28;867;-48
2023/09/06 00:45:32;;;;;;;2.97;2.28;;;;;;;18.33;75.28;93918.06;522315;28;1161;-48
2023/09/06 00:45:50;;;;;;;2.35;2.15;;;;;;;18.33;75.23;93918.06;520986;28;824;-50
2023/09/06 00:46:07;;;;;;;2.60;2.40;;;;;;;18.21;75.55;93901.16;521471;28;857;-48
2023/09/06 00:46:23;;;;;;;2.63;2.42;;;;;;;18.33;75.50;93920.84;521799;28;1914;-49
2023/09/06 00:46:38;;;;;;;2.45;2.25;;;;;;;18.34;75.41;93913.94;519845;28;824;-48
2023/09/06 00:46:53;;;;;;;2.27;2.10;;;;;;;18.33;75.53;93920.84;516438;28;1154;-48
2023/09/06 00:47:09;;;;;;;2.13;1.98;;;;;;;18.33;75.56;93918.06;517009;28;849;-49
2023/09/06 00:47:24;;;;;;;2.37;2.13;;;;;;;18.33;75.46;93920.84;513319;28;1699;-50
2023/09/06 00:47:42;;;;;;;3.40;2.40;;;;;;;18.32;75.40;93919.41;513819;28;822;-49
2023/09/06 00:47:58;;;;;;;3.05;2.50;;;;;;;18.32;75.40;93920.13;513664;28;859;-49
2023/09/06 00:48:21;;;;;;;2.55;2.35;;;;;;;18.32;75.40;93919.41;516320;28;924;-49
2023/09/06 00:48:37;;;;;;;2.50;2.30;;;;;;;18.31;75.30;93921.44;516561;28;938;-49
2023/09/06 00:48:53;;;;;;;2.30;2.10;;;;;;;18.32;75.51;93922.19;516611;28;823;-50
2023/09/06 00:49:09;;;;;;;2.30;2.10;;;;;;;18.31;75.57;93915.88;518907;28;1104;-49
2023/09/06 00:49:24;;;;;;;2.13;1.95;;;;;;;18.31;75.63;93917.91;519428;28;1186;-49
2023/09/06 00:49:39;;;;;;;2.17;1.90;;;;;;;18.30;75.53;93913.66;517739;28;862;-49
2023/09/06 00:49:55;;;;;;;2.30;2.10;;;;;;;17.94;75.48;93875.41;522851;28;1494;-49
2023/09/06 00:50:11;;;;;;;2.05;1.95;;;;;;;18.29;75.39;93914.97;523923;28;1681;-49
2023/09/06 00:50:26;;;;;;;2.20;2.00;;;;;;;18.29;75.20;93917.78;521896;28;856;-48
2023/09/06 00:50:42;;;;;;;2.47;2.27;;;;;;;18.29;75.26;93920.56;522282;28;910;-51
2023/09/06 00:50:58;;;;;;;2.80;2.22;;;;;;;18.29;75.17;93917.78;523545;28;1278;-51
2023/09/06 00:51:13;;;;;;;2.77;2.20;;;;;;;18.29;75.05;93923.34;526239;28;868;-49
2023/09/06 00:51:29;;;;;;;2.53;2.33;;;;;;;18.29;74.95;93917.78;523917;28;1457;-49
2023/09/06 00:51:44;;;;;;;2.87;2.30;;;;;;;18.29;74.88;93920.56;522962;28;844;-50
2023/09/06 00:51:59;;;;;;;2.83;2.20;;;;;;;18.17;74.84;93900.84;519937;28;930;-48
2023/09/06 00:52:16;;;;;;;2.70;2.20;;;;;;;18.29;75.01;93924.09;522237;28;848;-49
2023/09/06 00:52:32;;;;;;;3.08;2.38;;;;;;;18.31;74.98;93923.50;519589;28;1134;-49
2023/09/06 00:52:50;;;;;;;2.73;2.33;;;;;;;17.91;75.06;93860.53;518906;28;1745;-50
2023/09/06 00:53:06;;;;;;;2.45;2.22;;;;;;;18.31;75.17;93921.44;519228;28;878;-48
2023/09/06 00:53:23;;;;;;;2.67;2.20;;;;;;;18.31;75.00;93917.91;521810;28;927;-49
2023/09/06 00:53:39;;;;;;;2.58;2.33;;;;;;;18.31;74.97;93917.91;521780;28;924;-50
2023/09/06 00:53:55;;;;;;;2.60;2.40;;;;;;;18.31;75.09;93915.13;517825;28;885;-49
2023/09/06 00:54:10;;;;;;;2.50;2.30;;;;;;;18.27;74.97;93912.03;519189;28;1074;-48
2023/09/06 00:54:25;;;;;;;2.47;2.20;;;;;;;18.30;75.17;93933.22;519780;28;822;-49
2023/09/06 00:54:41;;;;;;;3.05;2.28;;;;;;;18.31;75.20;93912.31;517725;28;1019;-49
2023/09/06 00:55:00;;;;;;;3.30;2.17;;;;;;;18.31;75.45;93917.91;520336;28;898;-49
2023/09/06 00:55:16;;;;;;;2.22;2.03;;;;;;;18.24;74.92;93902.75;517541;28;1729;-48
2023/09/06 00:55:33;;;;;;;2.35;2.10;;;;;;;18.32;74.14;93922.19;519584;28;1126;-49
2023/09/06 00:55:49;;;;;;;2.30;2.10;;;;;;;18.31;73.99;93917.91;519676;28;930;-51
2023/09/06 00:56:08;;;;;;;2.17;1.97;;;;;;;18.31;73.85;93915.13;520464;28;914;-49
2023/09/06 00:56:24;;;;;;;2.42;2.22;;;;;;;18.33;73.63;93923.66;518986;28;931;-48
2023/09/06 00:56:39;;;;;;;2.28;2.08;;;;;;;18.32;73.59;93917.31;517747;28;936;-49
2023/09/06 00:56:55;;;;;;;2.73;2.20;;;;;;;18.32;73.53;93916.59;517779;28;1059;-51
2023/09/06 00:57:11;;;;;;;4.13;2.37;;;;;;;18.32;73.40;93922.19;521096;28;1109;-50
2023/09/06 00:57:30;;;;;;;3.78;2.20;;;;;;;18.34;73.43;93925.88;521271;28;899;-50
2023/09/06 00:57:46;;;;;;;2.30;2.05;;;;;;;18.34;73.58;93916.75;519758;28;939;-48
2023/09/06 00:58:01;;;;;;;3.47;2.10;;;;;;;18.34;73.37;93916.75;520234;28;1725;-49
2023/09/06 00:58:18;;;;;;;4.00;2.10;;;;;;;18.35;72.98;93918.22;520445;28;959;-49
2023/09/06 00:58:33;;;;;;;4.10;2.00;;;;;;;18.34;72.85;93920.28;521387;28;1114;-48
2023/09/06 00:58:49;;;;;;;3.97;2.10;;;;;;;18.31;72.93;93915.88;521813;28;888;-48
2023/09/06 00:59:04;;;;;;;2.33;2.13;;;;;;;18.36;73.39;93914.84;522498;28;805;-51
2023/09/06 00:59:22;;;;;;;2.20;2.00;;;;;;;18.37;73.69;93923.94;523894;28;849;-48
2023/09/06 00:59:38;;;;;;;3.25;2.22;;;;;;;18.37;73.79;93918.34;521901;28;845;-49
2023/09/06 00:59:54;;;;;;;3.17;2.22;;;;;;;18.38;73.62;93922.63;519800;28;1015;-48
2023/09/06 01:00:17;;;;;;;2.03;1.83;;;;;;;18.36;73.62;93926.03;516815;28;1078;-48
2023/09/06 01:00:33;;;;;;;2.35;2.15;;;;;;;18.36;73.66;93916.91;517712;28;884;-49
2023/09/06 01:00:49;;;;;;;2.50;2.30;;;;;;;18.34;73.65;93925.88;517733;28;924;-48
2023/09/06 01:01:05;;;;;;;2.42;2.22;;;;;;;18.34;73.70;93919.53;518523;28;986;-50
2023/09/06 01:01:20;;;;;;;2.83;2.40;;;;;;;18.34;73.86;93917.50;519795;28;919;-49
2023/09/06 01:01:35;;;;;;;3.05;2.53;;;;;;;18.02;73.98;93882.31;520242;28;1152;-49
2023/09/06 01:01:51;;;;;;;3.00;2.30;;;;;;;18.33;73.97;93916.00;519708;28;900;-50
2023/09/06 01:02:06;;;;;;;2.40;2.00;;;;;;;18.33;74.10;93913.22;521162;28;879;-50
2023/09/06 01:02:22;;;;;;;2.40;2.17;;;;;;;18.34;74.25;93916.75;521734;28;903;-49
2023/09/06 01:02:38;;;;;;;2.87;2.37;;;;;;;18.34;74.19;93913.94;520324;28;1768;-48
2023/09/06 01:02:54;;;;;;;2.83;2.53;;;;;;;18.35;74.21;93918.94;521688;28;875;-48
2023/09/06 01:03:09;;;;;;;2.73;2.40;;;;;;;18.34;74.49;93914.69;521085;28;1043;-49
2023/09/06 01:03:24;;;;;;;2.90;2.13;;;;;;;18.35;74.26;93921.00;521930;28;791;-48
2023/09/06 01:03:40;;;;;;;3.30;2.08;;;;;;;18.35;74.39;93921.00;520153;28;879;-48
2023/09/06 01:03:57;;;;;;;2.80;2.00;;;;;;;18.36;74.38;93917.63;519901;28;970;-49
2023/09/06 01:04:12;;;;;;;2.20;2.00;;;;;;;18.36;74.25;93917.63;521650;28;805;-50
2023/09/06 01:04:27;;;;;;;2.30;2.10;;;;;;;18.28;74.06;93905.13;522097;28;784;-49
2023/09/06 01:04:43;;;;;;;2.65;2.45;;;;;;;18.36;73.89;93917.63;521522;28;856;-49
2023/09/06 01:04:58;;;;;;;2.70;2.47;;;;;;;18.36;73.93;93917.63;522027;28;815;-49
2023/09/06 01:05:18;;;;;;;2.73;2.27;;;;;;;18.37;73.46;93912.75;523849;28;1179;-49
2023/09/06 01:05:40;;;;;;;2.42;2.20;;;;;;;18.36;72.97;93912.03;523859;28;932;-49
2023/09/06 01:06:05;;;;;;;2.75;2.25;;;;;;;18.34;72.98;93914.69;521824;28;939;-51
2023/09/06 01:06:27;;;;;;;2.20;2.00;;;;;;;18.39;73.27;93922.03;519273;28;1918;-48
2023/09/06 01:06:43;;;;;;;3.03;1.80;;;;;;;18.39;73.48;93921.28;519682;28;852;-50
2023/09/06 01:07:00;;;;;;;2.42;1.98;;;;;;;18.34;73.56;93909.09;519194;28;1729;-49
2023/09/06 01:07:16;;;;;;;2.30;2.10;;;;;;;18.30;72.81;93914.38;520227;28;1209;-49
2023/09/06 01:07:34;;;;;;;2.70;2.10;;;;;;;18.37;72.40;93918.34;525083;28;1101;-51
2023/09/06 01:07:51;;;;;;;3.35;2.10;;;;;;;18.38;72.82;93919.84;521740;28;885;-48
2023/09/06 01:08:11;;;;;;;2.78;2.28;;;;;;;18.38;73.03;93917.03;521623;28;879;-49
2023/09/06 01:08:32;;;;;;;2.97;2.25;;;;;;;18.38;73.14;93919.84;521811;28;956;-50
2023/09/06 01:08:58;;;;;;;2.70;2.10;;;;;;;18.37;73.28;93919.09;519718;28;1097;-49
2023/09/06 01:09:14;;;;;;;2.38;2.15;;;;;;;18.15;73.43;93901.44;518387;28;1573;-49
2023/09/06 01:09:29;;;;;;;2.70;2.33;;;;;;;18.37;73.46;93916.28;519370;28;1678;-50
2023/09/06 01:09:46;;;;;;;2.60;2.30;;;;;;;18.31;73.48;93912.31;517240;28;1808;-50
2023/09/06 01:10:03;;;;;;;4.07;2.20;;;;;;;18.40;73.87;93919.97;517974;28;906;-50
2023/09/06 01:10:18;;;;;;;4.70;2.58;;;;;;;18.38;73.95;93917.78;519620;28;1405;-49
2023/09/06 01:10:34;;;;;;;4.47;2.27;;;;;;;18.39;74.00;93915.69;518929;28;1098;-48
2023/09/06 01:10:50;;;;;;;4.40;2.17;;;;;;;18.29;74.16;93907.34;517695;28;892;-49
2023/09/06 01:11:22;;;;;;;2.80;2.33;;;;;;;18.38;74.40;93917.78;519501;28;844;-50
2023/09/06 01:11:39;;;;;;;2.42;2.22;;;;;;;18.38;74.42;93914.97;523895;28;915;-50
2023/09/06 01:11:54;;;;;;;2.40;2.20;;;;;;;18.39;74.40;93918.50;524149;28;813;-48
2023/09/06 01:12:12;;;;;;;2.03;1.80;;;;;;;18.37;74.28;93923.94;523663;28;1149;-48
2023/09/06 01:12:28;;;;;;;2.45;2.05;;;;;;;18.37;74.33;93915.56;522853;28;1689;-49
2023/09/06 01:12:43;;;;;;;2.43;2.23;;;;;;;18.36;74.57;93914.84;521004;28;844;-48
2023/09/06 01:12:59;;;;;;;2.30;2.10;;;;;;;18.34;74.65;93908.38;520238;28;801;-49
2023/09/06 01:13:14;;;;;;;2.53;2.27;;;;;;;18.37;74.94;93921.16;519908;28;875;-49
2023/09/06 01:13:29;;;;;;;2.67;2.37;;;;;;;18.37;74.49;93923.94;520009;28;876;-49
2023/09/06 01:13:56;;;;;;;2.25;2.05;;;;;;;18.33;73.31;93918.81;522088;28;782;-48
2023/09/06 01:14:11;;;;;;;2.40;2.20;;;;;;;18.32;72.63;93919.41;521746;28;877;-49
2023/09/06 01:14:27;;;;;;;2.50;2.30;;;;;;;18.31;72.63;93915.88;521976;28;875;-50
2023/09/06 01:14:42;;;;;;;2.42;2.17;;;;;;;18.32;72.51;93920.13;521932;28;934;-48
2023/09/06 01:14:57;;;;;;;2.30;2.10;;;;;;;18.31;72.24;93917.91;521930;28;880;-49
2023/09/06 01:15:13;;;;;;;2.33;2.13;;;;;;;18.29;72.14;93912.91;520924;28;1541;-50
2023/09/06 01:15:28;;;;;;;2.40;2.20;;;;;;;18.25;72.20;93915.44;520993;28;813;-50
2023/09/06 01:15:45;;;;;;;3.20;2.30;;;;;;;18.29;71.85;93920.56;520970;28;864;-48
2023/09/06 01:16:00;;;;;;;3.43;2.23;;;;;;;18.28;72.00;93921.91;520102;28;864;-48
2023/09/06 01:16:29;;;;;;;2.58;2.00;;;;;;;18.28;71.97;93917.03;523041;28;823;-51
2023/09/06 01:16:48;;;;;;;2.30;1.90;;;;;;;18.29;72.06;93924.09;519761;28;962;-48
2023/09/06 01:17:04;;;;;;;3.80;2.20;;;;;;;18.21;72.22;93906.00;520958;28;1004;-49
2023/09/06 01:17:21;;;;;;;3.72;2.45;;;;;;;18.30;72.30;93919.97;522755;28;911;-48
2023/09/06 01:17:38;;;;;;;3.25;2.30;;;;;;;18.30;72.27;93919.25;521814;28;871;-48
2023/09/06 01:17:54;;;;;;;3.63;2.03;;;;;;;18.27;72.23;93920.41;519583;28;844;-48
2023/09/06 01:18:09;;;;;;;2.42;1.95;;;;;;;18.30;72.21;93917.19;518543;28;1478;-49
2023/09/06 01:18:26;;;;;;;2.55;1.95;;;;;;;18.26;71.71;93919.69;518468;28;901;-48
2023/09/06 01:18:42;;;;;;;2.80;1.80;;;;;;;18.23;71.39;93923.66;515256;28;898;-49
2023/09/06 01:18:59;;;;;;;2.47;1.88;;;;;;;17.99;71.46;93903.06;517231;28;868;-49
2023/09/06 01:19:15;;;;;;;1.92;1.73;;;;;;;18.16;71.45;93919.69;519752;28;797;-49
2023/09/06 01:19:33;;;;;;;2.03;1.83;;;;;;;18.15;71.50;93918.22;517635;28;884;-49
2023/09/06 01:19:52;;;;;;;2.28;2.00;;;;;;;18.17;71.89;93923.94;517306;28;1214;-50
2023/09/06 01:20:16;;;;;;;2.08;1.90;;;;;;;18.22;71.75;93924.22;518788;28;884;-50
2023/09/06 01:20:36;;;;;;;2.30;2.10;;;;;;;18.24;72.03;93916.00;517288;28;1358;-49